Saturday, October 25, 2014, 3:01 AM EDT

KPOU, Poughkeepsie Dutchess Cty

Location: Wappingers Falls, NY, United States Lat: 41.633
Local Time: 3:01 AM EDT ( 7:01 GMT) Lon: -73.883
Time Zone: US/Eastern Elev: 167 ft

Show me the last for .
Show Decoded

2014-10-25 01:53 METAR KPOU 250553Z AUTO 00000KT 10SM CLR 04/03 A2986 RMK AO2 SLP107 T00440033
                 10106 20039 53000 TSNO =
2014-10-25 00:57 METAR KPOU 250457Z AUTO 00000KT 3SM BR CLR 05/04 A2985 =
2014-10-25 00:53 METAR KPOU 250453Z AUTO 00000KT 1 1/4SM BR CLR 05/04 A2986 RMK AO2 SLP107
                 T00500039 401500050 TSNO =
2014-10-25 00:46 METAR KPOU 250446Z AUTO 00000KT 1 1/2SM BR CLR 05/04 A2985 RMK AO2 VIS 1/2V5
                 T00500039 TSNO =
2014-10-24 23:53 METAR KPOU 250353Z AUTO 07003KT 9SM CLR 06/04 A2985 RMK AO2 SLP105 T00560044
                 TSNO =
2014-10-24 22:53 METAR KPOU 250253Z AUTO 00000KT 10SM CLR 07/05 A2986 =
2014-10-24 21:53 METAR KPOU 250153Z AUTO 00000KT 10SM CLR 08/07 A2984 RMK AO2 SLP101 T00830067
                 TSNO =
2014-10-24 20:53 METAR KPOU 250053Z AUTO 19003KT 10SM CLR 10/08 A2983 RMK AO2 SLP097 T01000078
                 TSNO =
2014-10-24 19:53 METAR KPOU 242353Z AUTO 31003KT 10SM CLR 11/08 A2981 RMK AO2 SLP092 T01060078
                 10139 20100 53011 TSNO =
2014-10-24 18:53 METAR KPOU 242253Z AUTO 00000KT 10SM CLR 12/08 A2980 RMK AO2 SLP088 T01220078
                 TSNO =
2014-10-24 17:53 METAR KPOU 242153Z AUTO 00000KT 10SM OVC047 13/08 A2978 RMK AO2 SLP081 T01330078
                 TSNO =
2014-10-24 16:53 METAR KPOU 242053Z AUTO 35004KT 10SM OVC042 14/07 A2978 RMK AO2 SLP081 T01390072
                 51002 TSNO =
2014-10-24 15:53 METAR KPOU 241953Z AUTO 01004KT 10SM OVC039 14/07 A2978 RMK AO2 SLP080 T01390072
                 TSNO =
2014-10-24 14:53 METAR KPOU 241853Z 01008KT 10SM OVC036 14/07 A2978 RMK AO2 SLP080 T01390067 =
2014-10-24 13:53 METAR KPOU 241753Z 01006KT 10SM OVC034 14/06 A2977 RMK AO2 SLP079 60000
                 T01390061 10150 20094 58015 =
2014-10-24 12:53 METAR KPOU 241653Z 01005KT 10SM BKN031 BKN041 BKN110 13/06 A2980 RMK AO2 SLP087
                 T01330061 =
2014-10-24 11:53 METAR KPOU 241553Z 34010G15KT 10SM BKN031 BKN041 BKN110 13/06 A2981 RMK AO2
                 SLP091 T01280061 =
2014-10-24 10:53 METAR KPOU 241453Z 35008KT 10SM OVC039 12/07 A2982 RMK AO2 SLP094 60000
                 T01220067 58001 =
2014-10-24 09:53 METAR KPOU 241353Z 01003KT 10SM OVC035 11/07 A2982 RMK AO2 SLP096 T01060072 =
2014-10-24 08:53 METAR KPOU 241253Z 01003KT 10SM OVC034 10/07 A2982 RMK AO2 RAB18E30 SLP096 P0000
                 T01000072 =
2014-10-24 07:53 METAR KPOU 241153Z 00000KT 10SM BKN021 OVC029 09/07 A2982 RMK AO2 SLP095 60000
                 70030 T00940067 10106 20094 53011 =
2014-10-24 07:03 METAR KPOU 241103Z 32003KT 10SM BKN025 OVC034 09/07 A2981 RMK AO2 T00940072 =
2014-10-24 06:53 METAR KPOU 241053Z 00000KT 10SM SCT027 OVC034 09/07 A2980 RMK AO2 RAE01 SLP089
                 P0000 T00940067 =
2014-10-24 05:53 METAR KPOU 240953Z AUTO 34003KT 10SM -RA SCT070 BKN090 BKN110 09/07 A2980 RMK
                 AO2 RAB50 SLP087 P0000 T00940067 TSNO =
2014-10-24 04:53 METAR KPOU 240853Z AUTO 34003KT 10SM FEW032 BKN055 OVC110 09/07 A2979 RMK AO2
                 SLP084 T00940067 55002 TSNO =
2014-10-24 03:53 METAR KPOU 240753Z AUTO 00000KT 10SM SCT031 OVC047 10/07 A2978 RMK AO2 SLP082
                 T01000067 TSNO =
2014-10-24 03:38 METAR KPOU 240738Z AUTO 35005KT 10SM FEW020 OVC030 10/07 A2979 RMK AO2 T01000067
                 TSNO =

Support USWX by starting your Amazon purchase here.